createdAt,value
2018-03-18T00:01:55.265Z,13.70
2018-03-18T00:04:23.051Z,13.70
2018-03-18T00:06:50.799Z,13.70
2018-03-18T00:09:18.523Z,13.70
2018-03-18T00:11:47.020Z,13.80
2018-03-18T00:14:14.742Z,13.70
2018-03-18T00:16:42.498Z,13.80
2018-03-18T00:19:10.241Z,13.80
2018-03-18T00:21:37.962Z,13.80
2018-03-18T00:24:06.449Z,13.80
2018-03-18T00:26:34.171Z,13.80
2018-03-18T00:29:01.890Z,13.80
2018-03-18T00:31:29.627Z,13.90
2018-03-18T00:33:57.350Z,13.90
2018-03-18T00:36:25.070Z,13.90
2018-03-18T00:38:52.789Z,13.90
2018-03-18T00:41:20.596Z,13.90
2018-03-18T00:43:48.371Z,13.90
2018-03-18T00:46:16.106Z,13.90
2018-03-18T00:48:44.596Z,13.90
2018-03-18T00:51:12.472Z,13.90
2018-03-18T00:53:40.950Z,14.00
2018-03-18T00:56:08.674Z,13.90
2018-03-18T00:58:36.399Z,14.00
2018-03-18T01:01:04.138Z,14.00
2018-03-18T01:03:31.873Z,14.00
2018-03-18T01:06:00.381Z,14.00
2018-03-18T01:08:28.111Z,14.00
2018-03-18T01:10:55.854Z,14.10
2018-03-18T01:13:23.586Z,14.00
2018-03-18T01:15:51.329Z,14.10
2018-03-18T01:18:19.082Z,14.10
2018-03-18T01:20:47.582Z,14.20
2018-03-18T01:23:15.329Z,14.10
2018-03-18T01:25:43.840Z,14.20
2018-03-18T01:28:11.565Z,14.20
2018-03-18T01:30:40.050Z,14.20
2018-03-18T01:33:08.554Z,14.30
2018-03-18T01:35:36.282Z,14.30
2018-03-18T01:38:04.002Z,14.30
2018-03-18T01:40:31.745Z,14.30
2018-03-18T01:42:59.462Z,14.30
2018-03-18T01:45:27.186Z,14.40
2018-03-18T01:47:54.914Z,14.40
2018-03-18T01:50:23.405Z,14.40
2018-03-18T01:53:03.000Z,14.40
2018-03-18T01:55:30.806Z,14.40
2018-03-18T01:57:58.539Z,14.40
2018-03-18T02:00:26.267Z,14.40
2018-03-18T02:02:54.070Z,14.50
2018-03-18T02:05:21.818Z,14.40
2018-03-18T02:07:49.550Z,14.40
2018-03-18T02:10:17.322Z,14.50
2018-03-18T02:12:45.058Z,14.40
2018-03-18T02:15:12.791Z,14.40
2018-03-18T02:17:41.285Z,14.40
2018-03-18T02:20:09.816Z,14.40
2018-03-18T02:22:37.597Z,14.40
2018-03-18T02:25:05.330Z,14.40
2018-03-18T02:27:33.078Z,14.40
2018-03-18T02:30:00.805Z,14.30
2018-03-18T02:32:29.318Z,14.30
2018-03-18T02:34:57.046Z,14.30
2018-03-18T02:37:24.777Z,14.30
2018-03-18T02:39:52.516Z,14.30
2018-03-18T02:42:20.258Z,14.30
2018-03-18T02:44:48.046Z,14.30
2018-03-18T02:47:15.779Z,14.30
2018-03-18T02:49:44.299Z,14.30
2018-03-18T02:52:12.839Z,14.30
2018-03-18T02:54:41.381Z,14.30
2018-03-18T02:57:09.123Z,14.20
2018-03-18T02:59:36.855Z,14.30
2018-03-18T03:02:05.390Z,14.20
2018-03-18T03:04:33.119Z,14.20
2018-03-18T03:07:00.863Z,14.20
2018-03-18T03:09:29.350Z,14.20
2018-03-18T03:11:57.906Z,14.20
2018-03-18T03:14:25.630Z,14.20
2018-03-18T03:16:53.367Z,14.20
2018-03-18T03:19:21.106Z,14.20
2018-03-18T03:21:49.612Z,14.20
2018-03-18T03:24:17.406Z,14.20
2018-03-18T03:26:45.142Z,14.20
2018-03-18T03:29:12.912Z,14.20
2018-03-18T03:31:40.638Z,14.20
2018-03-18T03:34:09.200Z,14.20
2018-03-18T03:36:36.966Z,14.10
2018-03-18T03:39:04.801Z,14.20
2018-03-18T03:41:32.572Z,14.20
2018-03-18T03:44:00.305Z,14.20
2018-03-18T03:46:28.038Z,14.20
2018-03-18T03:48:55.816Z,14.20
2018-03-18T03:51:24.324Z,14.20
2018-03-18T03:53:52.086Z,14.20
2018-03-18T03:56:19.805Z,14.20
2018-03-18T03:58:47.554Z,14.20
2018-03-18T04:01:15.334Z,14.20
2018-03-18T04:03:43.054Z,14.20
2018-03-18T04:06:10.787Z,14.20
2018-03-18T04:08:39.281Z,14.20
2018-03-18T04:11:07.018Z,14.20
2018-03-18T04:13:35.530Z,14.20
2018-03-18T04:16:03.310Z,14.20
2018-03-18T04:18:31.062Z,14.20
2018-03-18T04:20:58.792Z,14.20
2018-03-18T04:23:27.321Z,14.20
2018-03-18T04:25:55.063Z,14.20
2018-03-18T04:28:22.830Z,14.20
2018-03-18T04:30:50.573Z,14.20
2018-03-18T04:33:19.087Z,14.20
2018-03-18T04:35:46.811Z,14.30
2018-03-18T04:38:15.368Z,14.20
2018-03-18T04:40:43.102Z,14.20
2018-03-18T04:43:10.831Z,14.20
2018-03-18T04:45:39.321Z,14.20
2018-03-18T04:48:07.041Z,14.20
2018-03-18T04:50:34.779Z,14.20
2018-03-18T04:53:02.502Z,14.10
2018-03-18T04:55:30.262Z,14.10
2018-03-18T04:57:58.791Z,14.20
2018-03-18T05:00:26.535Z,14.10
2018-03-18T05:02:54.328Z,14.10
2018-03-18T05:05:23.170Z,14.10
2018-03-18T05:07:50.894Z,14.10
2018-03-18T05:10:18.618Z,14.10
2018-03-18T05:12:46.389Z,14.10
2018-03-18T05:15:14.134Z,14.10
2018-03-18T05:17:41.858Z,14.10
2018-03-18T05:20:10.352Z,14.00
2018-03-18T05:22:38.838Z,14.00
2018-03-18T05:25:07.330Z,14.00
2018-03-18T05:27:35.062Z,14.00
2018-03-18T05:30:02.796Z,14.00
2018-03-18T05:32:30.590Z,14.00
2018-03-18T05:34:59.094Z,14.00
2018-03-18T05:37:26.814Z,14.00
2018-03-18T05:39:54.683Z,14.00
2018-03-18T05:42:22.412Z,14.00
2018-03-18T05:44:50.140Z,14.00
2018-03-18T05:47:18.658Z,14.00
2018-03-18T05:49:46.384Z,14.00
2018-03-18T05:52:14.877Z,14.00
2018-03-18T05:54:42.686Z,14.00
2018-03-18T05:57:10.464Z,14.00
2018-03-18T05:59:38.193Z,14.00
2018-03-18T06:02:05.923Z,14.00
2018-03-18T06:04:34.422Z,14.00
2018-03-18T06:07:02.146Z,14.00
2018-03-18T06:09:29.870Z,14.00
2018-03-18T06:11:57.594Z,14.00
2018-03-18T06:14:26.104Z,14.00
2018-03-18T06:16:54.610Z,14.10
2018-03-18T06:19:22.339Z,14.00
2018-03-18T06:21:50.062Z,14.00
2018-03-18T06:24:17.791Z,14.10
2018-03-18T06:26:45.522Z,14.10
2018-03-18T06:29:13.233Z,14.10
2018-03-18T06:31:40.967Z,14.10
2018-03-18T06:34:08.692Z,14.10
2018-03-18T06:36:37.173Z,14.10
2018-03-18T06:39:05.686Z,14.10
2018-03-18T06:41:33.412Z,14.00
2018-03-18T06:44:01.914Z,14.10
2018-03-18T06:46:29.638Z,14.00
2018-03-18T06:48:57.428Z,14.00
2018-03-18T06:51:25.920Z,14.10
2018-03-18T06:53:53.650Z,14.00
2018-03-18T06:56:22.178Z,14.10
2018-03-18T06:58:49.902Z,14.00
2018-03-18T07:01:17.626Z,14.10
2018-03-18T07:03:45.375Z,14.00
2018-03-18T07:06:13.113Z,14.00
2018-03-18T07:08:40.838Z,14.00
2018-03-18T07:11:08.574Z,14.00
2018-03-18T07:13:36.338Z,14.10
2018-03-18T07:16:04.113Z,14.10
2018-03-18T07:18:31.894Z,14.10
2018-03-18T07:20:59.638Z,14.10
2018-03-18T07:23:27.377Z,14.10
2018-03-18T07:25:55.190Z,14.10
2018-03-18T07:28:22.926Z,14.10
2018-03-18T07:30:50.686Z,14.10
2018-03-18T07:33:18.411Z,14.20
2018-03-18T07:35:46.161Z,14.10
2018-03-18T07:38:14.675Z,14.20
2018-03-18T07:40:42.393Z,14.10
2018-03-18T07:43:10.142Z,14.20
2018-03-18T07:45:37.882Z,14.20
2018-03-18T07:48:05.682Z,14.20
2018-03-18T07:50:33.476Z,14.30
2018-03-18T07:53:01.220Z,14.30
2018-03-18T07:55:29.753Z,14.30
2018-03-18T07:57:57.510Z,14.30
2018-03-18T08:00:25.285Z,14.30
2018-03-18T08:02:53.014Z,14.30
2018-03-18T08:05:20.782Z,14.30
2018-03-18T08:07:48.612Z,14.40
2018-03-18T08:10:16.349Z,14.40
2018-03-18T08:12:44.078Z,14.50
2018-03-18T08:15:11.838Z,14.50
2018-03-18T08:17:39.567Z,14.60
2018-03-18T08:20:07.311Z,14.60
2018-03-18T08:22:35.037Z,14.60
2018-03-18T08:25:02.805Z,14.70
2018-03-18T08:27:30.535Z,14.70
2018-03-18T08:29:59.061Z,14.80
2018-03-18T08:32:26.890Z,14.70
2018-03-18T08:34:55.385Z,14.80
2018-03-18T08:37:23.110Z,14.80
2018-03-18T08:39:50.839Z,15.00
2018-03-18T08:42:28.453Z,15.00
2018-03-18T08:44:56.213Z,15.10
2018-03-18T08:47:23.959Z,15.20
2018-03-18T08:49:51.758Z,15.20
2018-03-18T08:52:19.534Z,15.30
2018-03-18T08:54:48.045Z,15.40
2018-03-18T08:57:15.788Z,15.40
2018-03-18T08:59:44.341Z,15.60
2018-03-18T09:02:12.082Z,15.50
2018-03-18T09:04:39.815Z,15.60
2018-03-18T09:07:07.562Z,15.50
2018-03-18T09:09:36.081Z,15.40
2018-03-18T09:12:03.821Z,15.40
2018-03-18T09:14:31.559Z,15.40
2018-03-18T09:17:00.070Z,15.30
2018-03-18T09:19:28.576Z,15.30
2018-03-18T09:21:56.310Z,15.30
2018-03-18T09:24:24.034Z,15.40
2018-03-18T09:26:51.759Z,15.50
2018-03-18T09:29:19.473Z,15.60
2018-03-18T09:31:47.959Z,15.90
2018-03-18T09:34:16.505Z,16.00
2018-03-18T09:36:44.251Z,16.00
2018-03-18T09:39:12.083Z,16.10
2018-03-18T09:41:39.898Z,16.20
2018-03-18T09:44:08.741Z,16.30
2018-03-18T09:46:36.502Z,16.40
2018-03-18T09:49:04.279Z,16.50
2018-03-18T09:51:32.021Z,16.60
2018-03-18T09:53:59.774Z,16.70
2018-03-18T09:56:28.307Z,16.80
2018-03-18T09:58:56.066Z,16.80
2018-03-18T10:01:23.811Z,16.80
2018-03-18T10:03:51.540Z,16.90
2018-03-18T10:06:20.059Z,17.00
2018-03-18T10:08:47.798Z,17.00
2018-03-18T10:11:16.350Z,17.20
2018-03-18T10:13:44.099Z,17.20
2018-03-18T10:16:11.864Z,17.20
2018-03-18T10:18:39.591Z,17.30
2018-03-18T10:21:07.359Z,17.40
2018-03-18T10:23:35.079Z,17.40
2018-03-18T10:26:02.881Z,17.30
2018-03-18T10:28:30.609Z,17.30
2018-03-18T10:30:58.355Z,17.20
2018-03-18T10:33:26.178Z,17.30
2018-03-18T10:35:53.922Z,17.40
2018-03-18T10:38:22.434Z,17.60
2018-03-18T10:40:50.180Z,17.60
2018-03-18T10:43:17.951Z,17.70
2018-03-18T10:45:45.782Z,17.90
2018-03-18T10:48:13.542Z,17.90
2018-03-18T10:50:41.293Z,18.10
2018-03-18T10:53:09.033Z,18.10
2018-03-18T10:55:36.762Z,18.10
2018-03-18T10:58:04.582Z,18.10
2018-03-18T11:00:37.887Z,18.00
2018-03-18T11:03:05.710Z,17.90
2018-03-18T11:05:33.442Z,17.90
2018-03-18T11:08:01.984Z,17.90
2018-03-18T11:10:29.759Z,17.90
2018-03-18T11:12:57.493Z,18.00
2018-03-18T11:15:25.231Z,17.90
2018-03-18T11:17:52.979Z,17.70
2018-03-18T11:20:21.466Z,17.60
2018-03-18T11:22:49.391Z,17.50
2018-03-18T11:25:17.119Z,17.60
2018-03-18T11:27:44.842Z,17.70
2018-03-18T11:30:13.346Z,17.70
2018-03-18T11:32:41.079Z,17.70
2018-03-18T11:35:09.679Z,17.50
2018-03-18T11:37:38.250Z,17.40
2018-03-18T11:40:06.850Z,17.40
2018-03-18T11:42:34.627Z,17.40
2018-03-18T11:45:02.393Z,17.40
2018-03-18T11:47:30.156Z,17.40
2018-03-18T11:49:57.906Z,17.40
2018-03-18T11:52:25.721Z,17.40
2018-03-18T11:54:53.445Z,17.40
2018-03-18T11:57:21.183Z,17.40
2018-03-18T11:59:49.706Z,17.40
2018-03-18T12:02:17.442Z,17.40
2018-03-18T12:04:45.166Z,17.30
2018-03-18T12:07:12.922Z,17.30
2018-03-18T12:09:40.684Z,17.30
2018-03-18T12:12:08.457Z,17.20
2018-03-18T12:14:36.192Z,17.10
2018-03-18T12:17:03.969Z,17.00
2018-03-18T12:19:31.711Z,17.00
2018-03-18T12:21:59.483Z,16.90
2018-03-18T12:24:27.219Z,16.80
2018-03-18T12:26:55.053Z,16.80
2018-03-18T12:29:22.799Z,16.60
2018-03-18T12:31:50.594Z,16.40
2018-03-18T12:34:19.158Z,16.00
2018-03-18T12:36:46.894Z,15.90
2018-03-18T12:39:14.618Z,15.70
2018-03-18T12:41:42.415Z,15.60
2018-03-18T12:44:10.261Z,15.50
2018-03-18T12:46:38.096Z,15.40
2018-03-18T12:49:05.892Z,15.40
2018-03-18T12:51:33.723Z,15.30
2018-03-18T12:54:02.325Z,15.40
2018-03-18T12:56:30.292Z,15.30
2018-03-18T12:58:59.086Z,15.40
2018-03-18T13:01:27.291Z,15.40
2018-03-18T13:03:55.391Z,15.50
2018-03-18T13:06:23.939Z,15.60
2018-03-18T13:08:54.819Z,15.60
2018-03-18T13:11:22.698Z,15.60
2018-03-18T13:13:50.538Z,15.60
2018-03-18T13:16:19.181Z,15.70
2018-03-18T13:18:46.996Z,15.70
2018-03-18T13:21:15.590Z,15.80
2018-03-18T13:23:44.225Z,15.80
2018-03-18T13:26:12.076Z,15.80
2018-03-18T13:28:39.913Z,15.80
2018-03-18T13:31:08.483Z,15.80
2018-03-18T13:33:37.093Z,15.80
2018-03-18T13:36:05.108Z,15.70
2018-03-18T13:38:32.927Z,15.80
2018-03-18T13:41:00.739Z,15.80
2018-03-18T13:43:28.554Z,15.80
2018-03-18T13:45:56.373Z,15.70
2018-03-18T13:48:24.212Z,15.60
2018-03-18T13:50:52.276Z,15.60
2018-03-18T13:53:20.080Z,15.70
2018-03-18T13:55:48.002Z,15.70
2018-03-18T13:58:15.757Z,15.70
2018-03-18T14:00:44.334Z,15.80
2018-03-18T14:04:04.207Z,15.80
2018-03-18T14:06:48.015Z,15.80
2018-03-18T14:09:16.673Z,15.80
2018-03-18T14:11:44.522Z,15.80
2018-03-18T14:14:12.431Z,15.80
2018-03-18T14:16:40.342Z,15.80
2018-03-18T14:19:08.151Z,15.80
2018-03-18T14:21:36.114Z,15.80
2018-03-18T14:24:03.920Z,15.90
2018-03-18T14:26:32.487Z,15.90
2018-03-18T14:29:00.445Z,15.90
2018-03-18T14:31:29.027Z,15.90
2018-03-18T14:33:56.831Z,15.90
2018-03-18T14:36:25.409Z,16.00
2018-03-18T14:38:53.924Z,15.90
2018-03-18T14:41:22.614Z,15.90
2018-03-18T14:43:51.031Z,15.90
2018-03-18T14:46:18.836Z,15.80
2018-03-18T14:48:46.637Z,15.80
2018-03-18T14:51:14.420Z,15.80
2018-03-18T14:53:43.047Z,15.80
2018-03-18T14:56:10.848Z,15.80
2018-03-18T14:58:38.698Z,15.80
2018-03-18T15:01:06.503Z,15.80
2018-03-18T15:03:34.473Z,15.80
2018-03-18T15:06:03.399Z,15.80
2018-03-18T15:08:31.893Z,15.80
2018-03-18T15:10:59.849Z,15.90
2018-03-18T15:13:27.761Z,15.80
2018-03-18T15:15:55.700Z,15.90
2018-03-18T15:18:23.464Z,15.90
2018-03-18T15:20:51.346Z,16.00
2018-03-18T15:23:19.249Z,16.00
2018-03-18T15:25:47.032Z,16.00
2018-03-18T15:28:15.547Z,16.10
2018-03-18T15:30:43.318Z,16.00
2018-03-18T15:33:11.144Z,16.10
2018-03-18T15:35:39.761Z,16.10
2018-03-18T15:38:07.527Z,16.10
2018-03-18T15:40:35.858Z,16.10
2018-03-18T15:43:23.519Z,16.10
2018-03-18T16:24:58.445Z,16.00
2018-03-18T16:27:27.129Z,16.00
2018-03-18T16:36:52.007Z,16.00
2018-03-18T16:39:19.810Z,16.00
2018-03-18T16:41:48.662Z,16.10
2018-03-18T16:44:20.322Z,16.00
2018-03-18T16:46:49.202Z,16.10
2018-03-18T16:59:34.263Z,16.10
2018-03-18T17:02:02.834Z,16.10
2018-03-18T17:04:31.441Z,16.10
2018-03-18T17:06:59.279Z,16.10
2018-03-18T17:09:27.846Z,16.10
2018-03-18T17:11:55.671Z,16.10
2018-03-18T17:14:23.430Z,16.00
2018-03-18T17:16:51.258Z,16.10
2018-03-18T17:19:19.040Z,16.10
2018-03-18T17:21:47.602Z,16.00
2018-03-18T17:24:15.409Z,16.00
2018-03-18T17:26:43.174Z,16.10
2018-03-18T17:29:11.924Z,16.10
2018-03-18T17:31:40.570Z,16.00
2018-03-18T17:34:08.352Z,16.00
2018-03-18T17:36:36.119Z,16.00
2018-03-18T17:39:04.019Z,16.00
2018-03-18T17:41:32.547Z,16.00
2018-03-18T17:44:00.280Z,16.00
2018-03-18T17:46:39.833Z,16.00
2018-03-18T17:49:19.569Z,16.00
2018-03-18T17:51:59.077Z,16.10
2018-03-18T17:54:39.370Z,16.10
2018-03-18T17:57:07.127Z,16.10
2018-03-18T17:59:34.920Z,16.10
2018-03-18T18:02:02.659Z,16.10
2018-03-18T18:04:30.394Z,16.10
2018-03-18T18:06:58.891Z,16.10
2018-03-18T18:09:26.630Z,16.10
2018-03-18T18:11:55.166Z,16.00
2018-03-18T18:14:22.970Z,16.00
2018-03-18T18:16:50.670Z,15.90
2018-03-18T18:19:18.402Z,15.90
2018-03-18T18:21:46.934Z,15.80
2018-03-18T18:24:14.665Z,15.80
2018-03-18T18:26:43.150Z,15.70
2018-03-18T18:29:11.636Z,15.60
2018-03-18T18:31:39.378Z,15.60
2018-03-18T18:34:08.059Z,15.50
2018-03-18T18:36:36.563Z,15.50
2018-03-18T18:39:04.411Z,15.50
2018-03-18T18:41:32.970Z,15.50
2018-03-18T18:44:00.693Z,15.50
2018-03-18T18:46:28.496Z,15.40
2018-03-18T18:48:56.240Z,15.40
2018-03-18T18:51:24.111Z,15.40
2018-03-18T18:53:51.862Z,15.40
2018-03-18T18:56:19.585Z,15.30
2018-03-18T18:58:48.102Z,15.20
2018-03-18T19:01:15.820Z,15.20
2018-03-18T19:03:44.325Z,15.20
2018-03-18T19:06:13.187Z,15.10
2018-03-18T19:08:41.707Z,15.20
2018-03-18T19:11:10.216Z,15.20
2018-03-18T19:13:37.967Z,15.20
2018-03-18T19:16:05.746Z,15.20
2018-03-18T19:18:33.583Z,15.30
2018-03-18T19:21:01.345Z,15.30
2018-03-18T19:23:29.105Z,15.30
2018-03-18T19:25:56.862Z,15.30
2018-03-18T19:28:24.645Z,15.30
2018-03-18T19:30:52.473Z,15.30
2018-03-18T19:33:20.248Z,15.30
2018-03-18T19:35:48.061Z,15.30
2018-03-18T19:38:16.834Z,15.30
2018-03-18T19:40:44.684Z,15.20
2018-03-18T19:43:12.426Z,15.20
2018-03-18T19:45:40.948Z,15.20
2018-03-18T19:48:08.714Z,15.20
2018-03-18T19:50:36.478Z,15.20
2018-03-18T19:53:05.303Z,15.30
2018-03-18T19:55:33.060Z,15.30
2018-03-18T19:58:00.818Z,15.30
2018-03-18T20:00:28.739Z,15.30
2018-03-18T20:02:56.483Z,15.40
2018-03-18T20:05:25.081Z,15.40
2018-03-18T20:07:52.826Z,15.40
2018-03-18T20:10:21.362Z,15.40
2018-03-18T20:12:49.087Z,15.40
2018-03-18T20:15:16.888Z,15.40
2018-03-18T20:17:44.692Z,15.40
2018-03-18T20:20:13.190Z,15.40
2018-03-18T20:22:40.931Z,15.40
2018-03-18T20:25:09.426Z,15.40
2018-03-18T20:27:38.021Z,15.50
2018-03-18T20:30:05.960Z,15.50
2018-03-18T20:32:33.746Z,15.50
2018-03-18T20:35:01.519Z,15.50
2018-03-18T20:37:29.250Z,15.50
2018-03-18T20:39:57.017Z,15.50
2018-03-18T20:42:24.729Z,15.50
2018-03-18T20:44:52.454Z,15.50
2018-03-18T20:47:20.987Z,15.50
2018-03-18T20:49:48.702Z,15.50
2018-03-18T20:52:17.222Z,15.50
2018-03-18T20:54:44.955Z,15.50
2018-03-18T20:57:13.440Z,15.50
2018-03-18T20:59:41.154Z,15.50
2018-03-18T21:02:08.934Z,15.50
2018-03-18T21:04:36.647Z,15.60
2018-03-18T21:07:04.395Z,15.50
2018-03-18T21:09:32.128Z,15.50
2018-03-18T21:11:59.857Z,15.50
2018-03-18T21:14:27.607Z,15.50
2018-03-18T21:16:55.381Z,15.50
2018-03-18T21:19:23.133Z,15.50
2018-03-18T21:21:50.909Z,15.50
2018-03-18T21:24:18.664Z,15.50
2018-03-18T21:26:46.470Z,15.50
2018-03-18T21:29:14.420Z,15.40
2018-03-18T21:31:42.213Z,15.40
2018-03-18T21:34:10.718Z,15.40
2018-03-18T21:36:38.499Z,15.40
2018-03-18T21:39:06.244Z,15.40
2018-03-18T21:41:33.979Z,15.40
2018-03-18T21:44:01.738Z,15.40
2018-03-18T21:46:29.579Z,15.40
2018-03-18T21:48:57.310Z,15.40
2018-03-18T21:51:25.081Z,15.40
2018-03-18T21:53:52.810Z,15.40
2018-03-18T21:56:21.318Z,15.30
2018-03-18T21:58:49.082Z,15.30
2018-03-18T22:01:16.814Z,15.40
2018-03-18T22:03:45.334Z,15.30
2018-03-18T22:06:13.802Z,15.30
2018-03-18T22:08:41.538Z,15.30
2018-03-18T22:11:10.046Z,15.20
2018-03-18T22:13:37.776Z,15.20
2018-03-18T22:16:05.562Z,15.20
2018-03-18T22:18:34.098Z,15.20
2018-03-18T22:21:01.845Z,15.20
2018-03-18T22:23:29.630Z,15.20
2018-03-18T22:25:57.375Z,15.10
2018-03-18T22:28:25.149Z,15.10
2018-03-18T22:30:52.890Z,15.10
2018-03-18T22:33:21.501Z,15.10
2018-03-18T22:35:49.261Z,15.00
2018-03-18T22:38:17.123Z,15.00
2018-03-18T22:40:44.842Z,15.00
2018-03-18T22:43:12.614Z,15.00
2018-03-18T22:45:40.416Z,15.00
2018-03-18T22:48:08.142Z,15.00
2018-03-18T22:50:35.866Z,15.00
2018-03-18T22:53:03.610Z,15.00
2018-03-18T22:55:31.334Z,15.00
2018-03-18T22:57:59.051Z,15.00
2018-03-18T23:00:26.805Z,15.00
2018-03-18T23:02:54.539Z,15.00
2018-03-18T23:05:22.272Z,15.00
2018-03-18T23:07:50.757Z,15.00
2018-03-18T23:10:18.495Z,15.00
2018-03-18T23:12:46.235Z,15.00
2018-03-18T23:15:13.965Z,15.00
2018-03-18T23:17:41.817Z,14.90
2018-03-18T23:20:09.538Z,14.90
2018-03-18T23:22:37.281Z,14.90
2018-03-18T23:25:05.050Z,15.00
2018-03-18T23:27:32.788Z,14.90
2018-03-18T23:30:00.529Z,14.90
2018-03-18T23:32:28.262Z,14.90
2018-03-18T23:34:56.779Z,14.90
2018-03-18T23:37:24.506Z,14.80
2018-03-18T23:39:52.270Z,14.80
2018-03-18T23:42:20.096Z,14.80
2018-03-18T23:44:47.851Z,14.80
2018-03-18T23:47:15.578Z,14.70
2018-03-18T23:49:44.069Z,14.70
2018-03-18T23:52:12.558Z,14.70
2018-03-18T23:54:40.299Z,14.70
2018-03-18T23:57:08.802Z,14.70
2018-03-18T23:59:36.541Z,14.70
